sensor_id;sensor_type;location;lat;lon;timestamp;P1;durP1;ratioP1;P2;durP2;ratioP2
22320;SDS011;11328;53.928;18.522;2023-04-25T00:00:18;10.23;;;5.97;;
22320;SDS011;11328;53.928;18.522;2023-04-25T00:02:46;12.00;;;5.93;;
22320;SDS011;11328;53.928;18.522;2023-04-25T00:05:13;9.10;;;5.68;;
22320;SDS011;11328;53.928;18.522;2023-04-25T00:07:41;8.90;;;5.75;;
22320;SDS011;11328;53.928;18.522;2023-04-25T00:10:09;11.70;;;5.78;;
22320;SDS011;11328;53.928;18.522;2023-04-25T00:12:39;9.63;;;5.72;;
22320;SDS011;11328;53.928;18.522;2023-04-25T00:15:07;10.02;;;5.72;;
22320;SDS011;11328;53.928;18.522;2023-04-25T00:17:35;9.60;;;5.57;;
22320;SDS011;11328;53.928;18.522;2023-04-25T00:20:04;9.20;;;5.50;;
22320;SDS011;11328;53.928;18.522;2023-04-25T00:22:35;10.70;;;5.50;;
22320;SDS011;11328;53.928;18.522;2023-04-25T00:25:04;10.02;;;5.95;;
22320;SDS011;11328;53.928;18.522;2023-04-25T00:27:32;8.52;;;5.30;;
22320;SDS011;11328;53.928;18.522;2023-04-25T00:29:59;10.63;;;5.68;;
22320;SDS011;11328;53.928;18.522;2023-04-25T00:32:26;9.57;;;5.50;;
22320;SDS011;11328;53.928;18.522;2023-04-25T00:34:54;11.45;;;6.18;;
22320;SDS011;11328;53.928;18.522;2023-04-25T00:37:22;7.70;;;5.43;;
22320;SDS011;11328;53.928;18.522;2023-04-25T00:39:48;9.32;;;5.50;;
22320;SDS011;11328;53.928;18.522;2023-04-25T00:42:16;9.18;;;5.97;;
22320;SDS011;11328;53.928;18.522;2023-04-25T00:44:44;11.00;;;6.25;;
22320;SDS011;11328;53.928;18.522;2023-04-25T00:47:12;9.35;;;5.78;;
22320;SDS011;11328;53.928;18.522;2023-04-25T00:49:39;10.30;;;5.78;;
22320;SDS011;11328;53.928;18.522;2023-04-25T00:52:06;10.20;;;5.50;;
22320;SDS011;11328;53.928;18.522;2023-04-25T00:54:33;8.55;;;4.95;;
22320;SDS011;11328;53.928;18.522;2023-04-25T00:57:00;11.57;;;4.97;;
22320;SDS011;11328;53.928;18.522;2023-04-25T00:59:27;7.30;;;4.40;;
22320;SDS011;11328;53.928;18.522;2023-04-25T01:01:56;7.53;;;4.15;;
22320;SDS011;11328;53.928;18.522;2023-04-25T01:04:24;8.18;;;4.38;;
22320;SDS011;11328;53.928;18.522;2023-04-25T01:06:53;6.28;;;3.83;;
22320;SDS011;11328;53.928;18.522;2023-04-25T01:09:21;6.00;;;4.03;;
22320;SDS011;11328;53.928;18.522;2023-04-25T01:11:50;8.85;;;4.22;;
22320;SDS011;11328;53.928;18.522;2023-04-25T01:14:16;6.32;;;4.10;;
22320;SDS011;11328;53.928;18.522;2023-04-25T01:16:44;7.97;;;3.92;;
22320;SDS011;11328;53.928;18.522;2023-04-25T01:19:11;9.68;;;4.50;;
22320;SDS011;11328;53.928;18.522;2023-04-25T01:21:40;8.32;;;3.83;;
22320;SDS011;11328;53.928;18.522;2023-04-25T01:24:07;7.55;;;4.28;;
22320;SDS011;11328;53.928;18.522;2023-04-25T01:26:34;6.30;;;4.00;;
22320;SDS011;11328;53.928;18.522;2023-04-25T01:29:03;5.22;;;3.53;;
22320;SDS011;11328;53.928;18.522;2023-04-25T01:31:31;5.40;;;3.70;;
22320;SDS011;11328;53.928;18.522;2023-04-25T01:34:01;7.28;;;3.90;;
22320;SDS011;11328;53.928;18.522;2023-04-25T01:36:28;6.20;;;3.97;;
22320;SDS011;11328;53.928;18.522;2023-04-25T01:38:55;8.38;;;4.13;;
22320;SDS011;11328;53.928;18.522;2023-04-25T01:41:22;8.98;;;4.50;;
22320;SDS011;11328;53.928;18.522;2023-04-25T01:43:49;6.82;;;4.30;;
22320;SDS011;11328;53.928;18.522;2023-04-25T01:46:17;8.80;;;4.72;;
22320;SDS011;11328;53.928;18.522;2023-04-25T01:48:44;7.82;;;4.57;;
22320;SDS011;11328;53.928;18.522;2023-04-25T01:51:11;7.38;;;4.60;;
22320;SDS011;11328;53.928;18.522;2023-04-25T01:53:39;7.30;;;4.70;;
22320;SDS011;11328;53.928;18.522;2023-04-25T01:56:08;8.05;;;5.05;;
22320;SDS011;11328;53.928;18.522;2023-04-25T01:58:36;7.60;;;5.18;;
22320;SDS011;11328;53.928;18.522;2023-04-25T02:01:02;9.48;;;5.25;;
22320;SDS011;11328;53.928;18.522;2023-04-25T02:03:31;8.77;;;5.70;;
22320;SDS011;11328;53.928;18.522;2023-04-25T02:05:58;9.23;;;5.88;;
22320;SDS011;11328;53.928;18.522;2023-04-25T02:08:26;8.80;;;5.75;;
22320;SDS011;11328;53.928;18.522;2023-04-25T02:10:53;12.05;;;6.00;;
22320;SDS011;11328;53.928;18.522;2023-04-25T02:13:20;9.77;;;6.13;;
22320;SDS011;11328;53.928;18.522;2023-04-25T02:15:47;9.88;;;6.20;;
22320;SDS011;11328;53.928;18.522;2023-04-25T02:18:14;8.98;;;6.20;;
22320;SDS011;11328;53.928;18.522;2023-04-25T02:20:43;10.10;;;6.30;;
22320;SDS011;11328;53.928;18.522;2023-04-25T02:23:10;8.93;;;6.35;;
22320;SDS011;11328;53.928;18.522;2023-04-25T02:25:37;11.55;;;6.80;;
22320;SDS011;11328;53.928;18.522;2023-04-25T02:28:04;11.95;;;6.72;;
22320;SDS011;11328;53.928;18.522;2023-04-25T02:30:31;10.00;;;6.72;;
22320;SDS011;11328;53.928;18.522;2023-04-25T02:32:58;11.05;;;6.68;;
22320;SDS011;11328;53.928;18.522;2023-04-25T02:35:25;11.57;;;6.68;;
22320;SDS011;11328;53.928;18.522;2023-04-25T02:37:52;14.45;;;8.07;;
22320;SDS011;11328;53.928;18.522;2023-04-25T02:40:19;10.35;;;6.82;;
22320;SDS011;11328;53.928;18.522;2023-04-25T02:42:46;10.40;;;7.05;;
22320;SDS011;11328;53.928;18.522;2023-04-25T02:45:13;12.48;;;7.82;;
22320;SDS011;11328;53.928;18.522;2023-04-25T02:47:43;11.15;;;7.88;;
22320;SDS011;11328;53.928;18.522;2023-04-25T02:50:10;12.35;;;7.93;;
22320;SDS011;11328;53.928;18.522;2023-04-25T02:52:37;10.90;;;7.45;;
22320;SDS011;11328;53.928;18.522;2023-04-25T02:55:04;12.05;;;8.50;;
22320;SDS011;11328;53.928;18.522;2023-04-25T02:57:32;11.65;;;8.70;;
22320;SDS011;11328;53.928;18.522;2023-04-25T03:00:00;13.45;;;9.10;;
22320;SDS011;11328;53.928;18.522;2023-04-25T03:02:28;12.52;;;9.50;;
22320;SDS011;11328;53.928;18.522;2023-04-25T03:04:55;13.68;;;9.45;;
22320;SDS011;11328;53.928;18.522;2023-04-25T03:07:22;12.15;;;9.80;;
22320;SDS011;11328;53.928;18.522;2023-04-25T03:09:48;13.98;;;9.90;;
22320;SDS011;11328;53.928;18.522;2023-04-25T03:12:16;14.75;;;10.55;;
22320;SDS011;11328;53.928;18.522;2023-04-25T03:14:42;13.30;;;9.95;;
22320;SDS011;11328;53.928;18.522;2023-04-25T03:17:09;12.52;;;9.77;;
22320;SDS011;11328;53.928;18.522;2023-04-25T03:19:36;12.80;;;10.05;;
22320;SDS011;11328;53.928;18.522;2023-04-25T03:22:03;14.73;;;10.77;;
22320;SDS011;11328;53.928;18.522;2023-04-25T03:24:30;13.13;;;9.80;;
22320;SDS011;11328;53.928;18.522;2023-04-25T03:26:57;12.95;;;9.65;;
22320;SDS011;11328;53.928;18.522;2023-04-25T03:29:24;13.30;;;10.77;;
22320;SDS011;11328;53.928;18.522;2023-04-25T03:31:54;15.32;;;10.48;;
22320;SDS011;11328;53.928;18.522;2023-04-25T03:34:24;14.88;;;11.25;;
22320;SDS011;11328;53.928;18.522;2023-04-25T03:36:52;14.77;;;11.02;;
22320;SDS011;11328;53.928;18.522;2023-04-25T03:39:19;13.90;;;11.27;;
22320;SDS011;11328;53.928;18.522;2023-04-25T03:41:46;14.20;;;11.15;;
22320;SDS011;11328;53.928;18.522;2023-04-25T03:44:13;15.77;;;11.35;;
22320;SDS011;11328;53.928;18.522;2023-04-25T03:46:40;16.08;;;11.70;;
22320;SDS011;11328;53.928;18.522;2023-04-25T03:49:07;14.70;;;11.82;;
22320;SDS011;11328;53.928;18.522;2023-04-25T03:51:34;15.25;;;10.95;;
22320;SDS011;11328;53.928;18.522;2023-04-25T03:54:01;15.45;;;11.60;;
22320;SDS011;11328;53.928;18.522;2023-04-25T03:56:28;15.73;;;12.25;;
22320;SDS011;11328;53.928;18.522;2023-04-25T03:58:56;16.13;;;11.50;;
22320;SDS011;11328;53.928;18.522;2023-04-25T04:01:23;16.42;;;11.68;;
22320;SDS011;11328;53.928;18.522;2023-04-25T04:03:49;17.40;;;11.70;;
22320;SDS011;11328;53.928;18.522;2023-04-25T04:06:17;18.08;;;12.00;;
22320;SDS011;11328;53.928;18.522;2023-04-25T04:08:44;17.17;;;12.50;;
22320;SDS011;11328;53.928;18.522;2023-04-25T04:11:11;17.08;;;12.38;;
22320;SDS011;11328;53.928;18.522;2023-04-25T04:13:38;14.70;;;12.10;;
22320;SDS011;11328;53.928;18.522;2023-04-25T04:16:05;15.23;;;11.90;;
22320;SDS011;11328;53.928;18.522;2023-04-25T04:18:32;14.73;;;11.50;;
22320;SDS011;11328;53.928;18.522;2023-04-25T04:20:59;14.30;;;10.88;;
22320;SDS011;11328;53.928;18.522;2023-04-25T04:23:26;15.55;;;11.23;;
22320;SDS011;11328;53.928;18.522;2023-04-25T04:25:54;15.90;;;11.57;;
22320;SDS011;11328;53.928;18.522;2023-04-25T04:28:22;15.00;;;10.82;;
22320;SDS011;11328;53.928;18.522;2023-04-25T04:30:49;11.98;;;9.25;;
22320;SDS011;11328;53.928;18.522;2023-04-25T04:33:19;12.50;;;9.57;;
22320;SDS011;11328;53.928;18.522;2023-04-25T04:35:46;15.23;;;8.98;;
22320;SDS011;11328;53.928;18.522;2023-04-25T04:38:13;12.85;;;8.23;;
22320;SDS011;11328;53.928;18.522;2023-04-25T04:40:44;11.95;;;8.88;;
22320;SDS011;11328;53.928;18.522;2023-04-25T04:43:12;13.43;;;7.85;;
22320;SDS011;11328;53.928;18.522;2023-04-25T04:45:40;10.25;;;7.32;;
22320;SDS011;11328;53.928;18.522;2023-04-25T04:48:07;11.68;;;7.00;;
22320;SDS011;11328;53.928;18.522;2023-04-25T04:50:34;9.60;;;7.00;;
22320;SDS011;11328;53.928;18.522;2023-04-25T04:53:01;10.52;;;7.00;;
22320;SDS011;11328;53.928;18.522;2023-04-25T04:55:30;10.32;;;6.93;;
22320;SDS011;11328;53.928;18.522;2023-04-25T04:57:57;9.73;;;6.82;;
22320;SDS011;11328;53.928;18.522;2023-04-25T05:00:24;11.02;;;6.50;;
22320;SDS011;11328;53.928;18.522;2023-04-25T05:02:55;9.60;;;6.22;;
22320;SDS011;11328;53.928;18.522;2023-04-25T05:05:24;10.38;;;6.05;;
22320;SDS011;11328;53.928;18.522;2023-04-25T05:07:51;9.10;;;6.50;;
22320;SDS011;11328;53.928;18.522;2023-04-25T05:10:19;10.82;;;6.85;;
22320;SDS011;11328;53.928;18.522;2023-04-25T05:12:46;10.15;;;6.22;;
22320;SDS011;11328;53.928;18.522;2023-04-25T05:15:13;9.23;;;5.70;;
22320;SDS011;11328;53.928;18.522;2023-04-25T05:17:40;9.73;;;5.88;;
22320;SDS011;11328;53.928;18.522;2023-04-25T05:20:07;9.43;;;5.65;;
22320;SDS011;11328;53.928;18.522;2023-04-25T05:22:35;9.82;;;6.03;;
22320;SDS011;11328;53.928;18.522;2023-04-25T05:25:02;9.90;;;5.60;;
22320;SDS011;11328;53.928;18.522;2023-04-25T05:27:30;8.73;;;5.60;;
22320;SDS011;11328;53.928;18.522;2023-04-25T05:29:57;11.45;;;6.38;;
22320;SDS011;11328;53.928;18.522;2023-04-25T05:32:23;10.25;;;5.97;;
22320;SDS011;11328;53.928;18.522;2023-04-25T05:34:51;10.27;;;5.85;;
22320;SDS011;11328;53.928;18.522;2023-04-25T05:37:18;11.07;;;6.50;;
22320;SDS011;11328;53.928;18.522;2023-04-25T05:39:45;9.45;;;6.20;;
22320;SDS011;11328;53.928;18.522;2023-04-25T05:42:15;9.07;;;6.10;;
22320;SDS011;11328;53.928;18.522;2023-04-25T05:44:42;11.75;;;6.43;;
22320;SDS011;11328;53.928;18.522;2023-04-25T05:47:09;11.52;;;6.95;;
22320;SDS011;11328;53.928;18.522;2023-04-25T05:49:36;10.10;;;5.93;;
22320;SDS011;11328;53.928;18.522;2023-04-25T05:52:03;10.27;;;6.10;;
22320;SDS011;11328;53.928;18.522;2023-04-25T05:54:33;8.65;;;5.68;;
22320;SDS011;11328;53.928;18.522;2023-04-25T05:56:59;8.85;;;5.75;;
22320;SDS011;11328;53.928;18.522;2023-04-25T05:59:28;10.63;;;5.70;;
22320;SDS011;11328;53.928;18.522;2023-04-25T06:01:55;9.25;;;5.60;;
22320;SDS011;11328;53.928;18.522;2023-04-25T06:04:22;11.40;;;5.63;;
22320;SDS011;11328;53.928;18.522;2023-04-25T06:06:50;8.68;;;5.18;;
22320;SDS011;11328;53.928;18.522;2023-04-25T06:09:17;7.82;;;4.97;;
22320;SDS011;11328;53.928;18.522;2023-04-25T06:11:44;9.35;;;4.97;;
22320;SDS011;11328;53.928;18.522;2023-04-25T06:14:10;10.43;;;5.25;;
22320;SDS011;11328;53.928;18.522;2023-04-25T06:16:37;9.35;;;5.20;;
22320;SDS011;11328;53.928;18.522;2023-04-25T06:19:04;9.95;;;4.70;;
22320;SDS011;11328;53.928;18.522;2023-04-25T06:21:31;9.52;;;4.82;;
22320;SDS011;11328;53.928;18.522;2023-04-25T06:23:58;9.98;;;5.18;;
22320;SDS011;11328;53.928;18.522;2023-04-25T06:26:25;9.05;;;4.80;;
22320;SDS011;11328;53.928;18.522;2023-04-25T06:28:52;8.98;;;4.90;;
22320;SDS011;11328;53.928;18.522;2023-04-25T06:31:19;7.50;;;4.78;;
22320;SDS011;11328;53.928;18.522;2023-04-25T06:33:46;9.63;;;4.70;;
22320;SDS011;11328;53.928;18.522;2023-04-25T06:36:14;9.18;;;4.75;;
22320;SDS011;11328;53.928;18.522;2023-04-25T06:38:41;9.55;;;4.90;;
22320;SDS011;11328;53.928;18.522;2023-04-25T06:41:08;8.40;;;4.38;;
22320;SDS011;11328;53.928;18.522;2023-04-25T06:43:37;10.20;;;5.55;;
22320;SDS011;11328;53.928;18.522;2023-04-25T06:46:03;7.90;;;4.57;;
22320;SDS011;11328;53.928;18.522;2023-04-25T06:48:30;8.55;;;4.53;;
22320;SDS011;11328;53.928;18.522;2023-04-25T06:50:57;7.88;;;4.25;;
22320;SDS011;11328;53.928;18.522;2023-04-25T06:53:24;10.32;;;4.15;;
22320;SDS011;11328;53.928;18.522;2023-04-25T06:55:51;10.82;;;4.05;;
22320;SDS011;11328;53.928;18.522;2023-04-25T06:58:18;7.63;;;4.28;;
22320;SDS011;11328;53.928;18.522;2023-04-25T07:00:45;7.60;;;3.60;;
22320;SDS011;11328;53.928;18.522;2023-04-25T07:03:12;7.18;;;3.63;;
22320;SDS011;11328;53.928;18.522;2023-04-25T07:05:40;8.75;;;3.92;;
22320;SDS011;11328;53.928;18.522;2023-04-25T07:08:07;11.02;;;4.43;;
22320;SDS011;11328;53.928;18.522;2023-04-25T07:10:33;8.30;;;3.60;;
22320;SDS011;11328;53.928;18.522;2023-04-25T07:13:01;6.90;;;3.80;;
22320;SDS011;11328;53.928;18.522;2023-04-25T07:15:28;8.23;;;3.50;;
22320;SDS011;11328;53.928;18.522;2023-04-25T07:17:57;6.80;;;3.50;;
22320;SDS011;11328;53.928;18.522;2023-04-25T07:20:24;8.50;;;3.70;;
22320;SDS011;11328;53.928;18.522;2023-04-25T07:22:53;8.57;;;3.50;;
22320;SDS011;11328;53.928;18.522;2023-04-25T07:25:20;7.72;;;3.47;;
22320;SDS011;11328;53.928;18.522;2023-04-25T07:27:49;7.65;;;3.75;;
22320;SDS011;11328;53.928;18.522;2023-04-25T07:30:16;7.95;;;3.58;;
22320;SDS011;11328;53.928;18.522;2023-04-25T07:32:45;6.47;;;3.40;;
22320;SDS011;11328;53.928;18.522;2023-04-25T07:35:13;6.40;;;3.13;;
22320;SDS011;11328;53.928;18.522;2023-04-25T07:37:40;9.05;;;3.60;;
22320;SDS011;11328;53.928;18.522;2023-04-25T07:40:07;6.25;;;3.28;;
22320;SDS011;11328;53.928;18.522;2023-04-25T07:42:35;8.05;;;3.60;;
22320;SDS011;11328;53.928;18.522;2023-04-25T07:45:02;5.65;;;3.00;;
22320;SDS011;11328;53.928;18.522;2023-04-25T07:47:29;8.00;;;3.03;;
22320;SDS011;11328;53.928;18.522;2023-04-25T07:49:57;5.60;;;2.92;;
22320;SDS011;11328;53.928;18.522;2023-04-25T07:52:24;6.38;;;3.30;;
22320;SDS011;11328;53.928;18.522;2023-04-25T07:54:50;6.88;;;2.95;;
22320;SDS011;11328;53.928;18.522;2023-04-25T07:57:18;8.63;;;3.97;;
22320;SDS011;11328;53.928;18.522;2023-04-25T07:59:46;8.43;;;2.97;;
22320;SDS011;11328;53.928;18.522;2023-04-25T08:02:12;6.55;;;2.70;;
22320;SDS011;11328;53.928;18.522;2023-04-25T08:04:39;8.25;;;3.00;;
22320;SDS011;11328;53.928;18.522;2023-04-25T08:07:07;3.33;;;2.25;;
22320;SDS011;11328;53.928;18.522;2023-04-25T08:09:34;9.60;;;3.20;;
22320;SDS011;11328;53.928;18.522;2023-04-25T08:12:03;4.82;;;2.78;;
22320;SDS011;11328;53.928;18.522;2023-04-25T08:14:30;5.13;;;2.67;;
22320;SDS011;11328;53.928;18.522;2023-04-25T08:17:02;7.20;;;2.75;;
22320;SDS011;11328;53.928;18.522;2023-04-25T08:19:30;8.63;;;3.20;;
22320;SDS011;11328;53.928;18.522;2023-04-25T08:21:57;6.50;;;3.03;;
22320;SDS011;11328;53.928;18.522;2023-04-25T08:24:24;6.93;;;3.00;;
22320;SDS011;11328;53.928;18.522;2023-04-25T08:26:52;5.93;;;2.70;;
22320;SDS011;11328;53.928;18.522;2023-04-25T08:29:20;8.90;;;3.33;;
22320;SDS011;11328;53.928;18.522;2023-04-25T08:31:47;5.55;;;2.90;;
22320;SDS011;11328;53.928;18.522;2023-04-25T08:34:14;5.53;;;2.50;;
22320;SDS011;11328;53.928;18.522;2023-04-25T08:36:41;7.88;;;2.70;;
22320;SDS011;11328;53.928;18.522;2023-04-25T08:39:08;5.30;;;2.38;;
22320;SDS011;11328;53.928;18.522;2023-04-25T08:41:36;8.68;;;5.18;;
22320;SDS011;11328;53.928;18.522;2023-04-25T08:44:03;6.10;;;2.70;;
22320;SDS011;11328;53.928;18.522;2023-04-25T08:46:33;5.82;;;1.90;;
22320;SDS011;11328;53.928;18.522;2023-04-25T08:49:01;3.67;;;1.73;;
22320;SDS011;11328;53.928;18.522;2023-04-25T08:51:30;5.15;;;1.67;;
22320;SDS011;11328;53.928;18.522;2023-04-25T08:54:08;2.95;;;1.50;;
22320;SDS011;11328;53.928;18.522;2023-04-25T08:56:41;4.22;;;1.50;;
22320;SDS011;11328;53.928;18.522;2023-04-25T08:59:14;2.40;;;1.23;;
22320;SDS011;11328;53.928;18.522;2023-04-25T09:01:41;3.53;;;1.60;;
22320;SDS011;11328;53.928;18.522;2023-04-25T09:04:08;4.55;;;1.90;;
22320;SDS011;11328;53.928;18.522;2023-04-25T09:06:38;5.22;;;2.20;;
22320;SDS011;11328;53.928;18.522;2023-04-25T09:09:06;6.10;;;1.83;;
22320;SDS011;11328;53.928;18.522;2023-04-25T09:11:36;4.88;;;1.63;;
22320;SDS011;11328;53.928;18.522;2023-04-25T09:14:13;4.32;;;1.83;;
22320;SDS011;11328;53.928;18.522;2023-04-25T09:19:27;3.42;;;2.00;;
22320;SDS011;11328;53.928;18.522;2023-04-25T09:22:05;3.45;;;1.83;;
22320;SDS011;11328;53.928;18.522;2023-04-25T09:27:13;5.13;;;1.83;;
22320;SDS011;11328;53.928;18.522;2023-04-25T09:29:46;2.72;;;1.42;;
22320;SDS011;11328;53.928;18.522;2023-04-25T09:32:18;4.35;;;1.60;;
22320;SDS011;11328;53.928;18.522;2023-04-25T09:34:56;3.33;;;1.85;;
22320;SDS011;11328;53.928;18.522;2023-04-25T09:37:28;5.22;;;2.10;;
22320;SDS011;11328;53.928;18.522;2023-04-25T09:39:57;5.80;;;2.20;;
22320;SDS011;11328;53.928;18.522;2023-04-25T09:42:29;5.10;;;1.90;;
22320;SDS011;11328;53.928;18.522;2023-04-25T09:44:58;4.00;;;1.98;;
22320;SDS011;11328;53.928;18.522;2023-04-25T09:47:28;2.85;;;1.73;;
22320;SDS011;11328;53.928;18.522;2023-04-25T09:49:55;7.32;;;2.25;;
22320;SDS011;11328;53.928;18.522;2023-04-25T09:52:23;2.67;;;1.80;;
22320;SDS011;11328;53.928;18.522;2023-04-25T09:54:51;3.67;;;1.98;;
22320;SDS011;11328;53.928;18.522;2023-04-25T09:59:51;4.80;;;2.17;;
22320;SDS011;11328;53.928;18.522;2023-04-25T10:02:21;4.95;;;2.20;;
22320;SDS011;11328;53.928;18.522;2023-04-25T10:04:52;5.88;;;2.45;;
22320;SDS011;11328;53.928;18.522;2023-04-25T10:07:22;3.60;;;2.20;;
22320;SDS011;11328;53.928;18.522;2023-04-25T10:09:58;3.03;;;1.90;;
22320;SDS011;11328;53.928;18.522;2023-04-25T10:12:31;4.35;;;1.88;;
22320;SDS011;11328;53.928;18.522;2023-04-25T10:15:00;2.47;;;1.50;;
22320;SDS011;11328;53.928;18.522;2023-04-25T10:17:29;5.63;;;1.70;;
22320;SDS011;11328;53.928;18.522;2023-04-25T10:19:57;3.47;;;1.77;;
22320;SDS011;11328;53.928;18.522;2023-04-25T10:22:29;2.78;;;1.85;;
22320;SDS011;11328;53.928;18.522;2023-04-25T10:25:07;5.32;;;2.40;;
22320;SDS011;11328;53.928;18.522;2023-04-25T10:27:36;5.68;;;2.28;;
22320;SDS011;11328;53.928;18.522;2023-04-25T10:30:04;2.92;;;2.00;;
22320;SDS011;11328;53.928;18.522;2023-04-25T10:32:38;2.90;;;1.80;;
22320;SDS011;11328;53.928;18.522;2023-04-25T10:35:15;4.53;;;1.88;;
22320;SDS011;11328;53.928;18.522;2023-04-25T10:40:33;4.82;;;1.92;;
22320;SDS011;11328;53.928;18.522;2023-04-25T10:46:25;5.38;;;1.83;;
22320;SDS011;11328;53.928;18.522;2023-04-25T10:49:00;2.38;;;1.83;;
22320;SDS011;11328;53.928;18.522;2023-04-25T10:54:19;3.00;;;1.65;;
22320;SDS011;11328;53.928;18.522;2023-04-25T10:56:51;2.83;;;1.80;;
22320;SDS011;11328;53.928;18.522;2023-04-25T10:59:19;4.63;;;2.35;;
22320;SDS011;11328;53.928;18.522;2023-04-25T11:01:51;3.17;;;1.95;;
22320;SDS011;11328;53.928;18.522;2023-04-25T11:04:25;7.35;;;2.28;;
22320;SDS011;11328;53.928;18.522;2023-04-25T11:07:00;5.30;;;2.55;;
22320;SDS011;11328;53.928;18.522;2023-04-25T11:09:33;3.80;;;2.20;;
22320;SDS011;11328;53.928;18.522;2023-04-25T11:12:02;4.78;;;2.15;;
22320;SDS011;11328;53.928;18.522;2023-04-25T11:14:29;4.63;;;2.50;;
22320;SDS011;11328;53.928;18.522;2023-04-25T11:16:57;7.10;;;3.08;;
22320;SDS011;11328;53.928;18.522;2023-04-25T11:19:29;5.43;;;2.63;;
22320;SDS011;11328;53.928;18.522;2023-04-25T11:22:00;7.18;;;3.08;;
22320;SDS011;11328;53.928;18.522;2023-04-25T11:24:32;5.53;;;2.70;;
22320;SDS011;11328;53.928;18.522;2023-04-25T11:27:02;5.72;;;3.10;;
22320;SDS011;11328;53.928;18.522;2023-04-25T11:29:32;7.90;;;3.92;;
22320;SDS011;11328;53.928;18.522;2023-04-25T11:32:01;9.38;;;3.80;;
22320;SDS011;11328;53.928;18.522;2023-04-25T11:34:29;9.23;;;3.30;;
22320;SDS011;11328;53.928;18.522;2023-04-25T11:36:59;6.10;;;3.08;;
22320;SDS011;11328;53.928;18.522;2023-04-25T11:39:28;6.97;;;3.10;;
22320;SDS011;11328;53.928;18.522;2023-04-25T11:41:56;9.02;;;3.90;;
22320;SDS011;11328;53.928;18.522;2023-04-25T11:44:23;7.20;;;3.40;;
22320;SDS011;11328;53.928;18.522;2023-04-25T11:46:51;6.88;;;3.60;;
22320;SDS011;11328;53.928;18.522;2023-04-25T11:49:18;6.63;;;3.10;;
22320;SDS011;11328;53.928;18.522;2023-04-25T11:51:46;6.00;;;3.38;;
22320;SDS011;11328;53.928;18.522;2023-04-25T11:54:15;7.07;;;3.70;;
22320;SDS011;11328;53.928;18.522;2023-04-25T11:56:43;9.80;;;3.92;;
22320;SDS011;11328;53.928;18.522;2023-04-25T11:59:11;7.10;;;3.10;;
22320;SDS011;11328;53.928;18.522;2023-04-25T12:01:40;7.40;;;3.35;;
22320;SDS011;11328;53.928;18.522;2023-04-25T12:04:16;6.22;;;3.13;;
22320;SDS011;11328;53.928;18.522;2023-04-25T12:06:50;8.50;;;3.20;;
22320;SDS011;11328;53.928;18.522;2023-04-25T12:09:20;7.80;;;3.58;;
22320;SDS011;11328;53.928;18.522;2023-04-25T12:11:55;5.22;;;3.30;;
22320;SDS011;11328;53.928;18.522;2023-04-25T12:14:31;5.75;;;3.10;;
22320;SDS011;11328;53.928;18.522;2023-04-25T12:17:01;5.60;;;3.30;;
22320;SDS011;11328;53.928;18.522;2023-04-25T12:19:32;6.90;;;3.28;;
22320;SDS011;11328;53.928;18.522;2023-04-25T12:22:02;7.70;;;4.18;;
22320;SDS011;11328;53.928;18.522;2023-04-25T12:24:44;9.23;;;3.47;;
22320;SDS011;11328;53.928;18.522;2023-04-25T12:27:13;6.38;;;3.67;;
22320;SDS011;11328;53.928;18.522;2023-04-25T12:29:49;6.43;;;2.72;;
22320;SDS011;11328;53.928;18.522;2023-04-25T12:32:22;6.53;;;2.70;;
22320;SDS011;11328;53.928;18.522;2023-04-25T12:34:49;5.63;;;2.53;;
22320;SDS011;11328;53.928;18.522;2023-04-25T12:37:16;4.95;;;2.40;;
22320;SDS011;11328;53.928;18.522;2023-04-25T12:39:44;5.20;;;2.30;;
22320;SDS011;11328;53.928;18.522;2023-04-25T12:42:11;6.57;;;2.55;;
22320;SDS011;11328;53.928;18.522;2023-04-25T12:44:39;5.82;;;2.78;;
22320;SDS011;11328;53.928;18.522;2023-04-25T12:47:06;4.45;;;2.30;;
22320;SDS011;11328;53.928;18.522;2023-04-25T12:49:34;6.88;;;2.40;;
22320;SDS011;11328;53.928;18.522;2023-04-25T12:52:01;5.85;;;2.65;;
22320;SDS011;11328;53.928;18.522;2023-04-25T12:54:28;7.00;;;2.70;;
22320;SDS011;11328;53.928;18.522;2023-04-25T12:56:55;5.97;;;2.80;;
22320;SDS011;11328;53.928;18.522;2023-04-25T12:59:23;8.85;;;3.30;;
22320;SDS011;11328;53.928;18.522;2023-04-25T13:01:50;7.82;;;3.13;;
22320;SDS011;11328;53.928;18.522;2023-04-25T13:04:17;10.15;;;3.75;;
22320;SDS011;11328;53.928;18.522;2023-04-25T13:06:47;12.95;;;3.88;;
22320;SDS011;11328;53.928;18.522;2023-04-25T13:09:14;12.15;;;4.13;;
22320;SDS011;11328;53.928;18.522;2023-04-25T13:11:44;11.23;;;4.50;;
22320;SDS011;11328;53.928;18.522;2023-04-25T13:14:12;9.13;;;4.40;;
22320;SDS011;11328;53.928;18.522;2023-04-25T13:16:39;9.85;;;4.45;;
22320;SDS011;11328;53.928;18.522;2023-04-25T13:19:07;10.70;;;4.60;;
22320;SDS011;11328;53.928;18.522;2023-04-25T13:21:37;9.25;;;4.30;;
22320;SDS011;11328;53.928;18.522;2023-04-25T13:24:04;8.38;;;4.03;;
22320;SDS011;11328;53.928;18.522;2023-04-25T13:26:31;7.82;;;3.80;;
22320;SDS011;11328;53.928;18.522;2023-04-25T13:28:59;8.30;;;3.53;;
22320;SDS011;11328;53.928;18.522;2023-04-25T13:31:26;9.88;;;3.90;;
22320;SDS011;11328;53.928;18.522;2023-04-25T13:33:53;9.00;;;4.40;;
22320;SDS011;11328;53.928;18.522;2023-04-25T13:36:20;8.90;;;4.28;;
22320;SDS011;11328;53.928;18.522;2023-04-25T13:38:48;10.85;;;4.40;;
22320;SDS011;11328;53.928;18.522;2023-04-25T13:41:15;8.25;;;4.15;;
22320;SDS011;11328;53.928;18.522;2023-04-25T13:43:45;8.45;;;4.28;;
22320;SDS011;11328;53.928;18.522;2023-04-25T13:46:14;9.05;;;4.10;;
22320;SDS011;11328;53.928;18.522;2023-04-25T13:49:02;8.68;;;3.50;;
22320;SDS011;11328;53.928;18.522;2023-04-25T13:51:38;12.30;;;7.43;;
22320;SDS011;11328;53.928;18.522;2023-04-25T13:54:05;10.05;;;6.03;;
22320;SDS011;11328;53.928;18.522;2023-04-25T13:56:33;8.27;;;3.40;;
22320;SDS011;11328;53.928;18.522;2023-04-25T13:59:01;8.13;;;3.45;;
22320;SDS011;11328;53.928;18.522;2023-04-25T14:01:29;6.68;;;3.35;;
22320;SDS011;11328;53.928;18.522;2023-04-25T14:04:00;6.95;;;2.80;;
22320;SDS011;11328;53.928;18.522;2023-04-25T14:06:31;5.53;;;2.47;;
22320;SDS011;11328;53.928;18.522;2023-04-25T14:08:59;6.20;;;2.97;;
22320;SDS011;11328;53.928;18.522;2023-04-25T14:11:30;8.50;;;3.63;;
22320;SDS011;11328;53.928;18.522;2023-04-25T14:13:57;23.30;;;9.23;;
22320;SDS011;11328;53.928;18.522;2023-04-25T14:16:24;7.20;;;3.40;;
22320;SDS011;11328;53.928;18.522;2023-04-25T14:18:52;5.40;;;3.00;;
22320;SDS011;11328;53.928;18.522;2023-04-25T14:21:20;14.25;;;4.78;;
22320;SDS011;11328;53.928;18.522;2023-04-25T14:23:47;13.57;;;5.10;;
22320;SDS011;11328;53.928;18.522;2023-04-25T14:26:15;8.50;;;3.83;;
22320;SDS011;11328;53.928;18.522;2023-04-25T14:28:42;10.32;;;3.97;;
22320;SDS011;11328;53.928;18.522;2023-04-25T14:31:09;9.60;;;3.65;;
22320;SDS011;11328;53.928;18.522;2023-04-25T14:33:36;8.85;;;4.13;;
22320;SDS011;11328;53.928;18.522;2023-04-25T14:36:07;7.18;;;3.15;;
22320;SDS011;11328;53.928;18.522;2023-04-25T14:38:35;7.00;;;3.20;;
22320;SDS011;11328;53.928;18.522;2023-04-25T14:41:03;7.75;;;3.38;;
22320;SDS011;11328;53.928;18.522;2023-04-25T14:43:30;8.60;;;3.80;;
22320;SDS011;11328;53.928;18.522;2023-04-25T14:45:57;7.60;;;3.47;;
22320;SDS011;11328;53.928;18.522;2023-04-25T14:48:24;7.80;;;3.70;;
22320;SDS011;11328;53.928;18.522;2023-04-25T14:50:52;7.20;;;3.38;;